sensor_id;sensor_type;location;lat;lon;timestamp;temperature;humidity
30999;DHT22;20549;50.042;8.968;2023-05-16T00:00:51;16.60;63.40
30999;DHT22;20549;50.042;8.968;2023-05-16T00:03:21;16.70;63.50
30999;DHT22;20549;50.042;8.968;2023-05-16T00:05:47;16.60;63.50
30999;DHT22;20549;50.042;8.968;2023-05-16T00:08:14;16.60;63.50
30999;DHT22;20549;50.042;8.968;2023-05-16T00:10:40;16.60;63.50
30999;DHT22;20549;50.042;8.968;2023-05-16T00:13:07;16.60;63.60
30999;DHT22;20549;50.042;8.968;2023-05-16T00:15:34;16.60;63.60
30999;DHT22;20549;50.042;8.968;2023-05-16T00:18:00;16.60;63.80
30999;DHT22;20549;50.042;8.968;2023-05-16T00:20:27;16.50;63.80
30999;DHT22;20549;50.042;8.968;2023-05-16T00:22:53;16.50;63.90
30999;DHT22;20549;50.042;8.968;2023-05-16T00:25:20;16.50;63.90
30999;DHT22;20549;50.042;8.968;2023-05-16T00:27:47;16.50;63.90
30999;DHT22;20549;50.042;8.968;2023-05-16T00:30:13;16.50;64.10
30999;DHT22;20549;50.042;8.968;2023-05-16T00:32:40;16.40;64.10
30999;DHT22;20549;50.042;8.968;2023-05-16T00:35:06;16.50;64.20
30999;DHT22;20549;50.042;8.968;2023-05-16T00:37:33;16.40;64.30
30999;DHT22;20549;50.042;8.968;2023-05-16T00:40:00;16.40;64.40
30999;DHT22;20549;50.042;8.968;2023-05-16T00:42:26;16.40;64.40
30999;DHT22;20549;50.042;8.968;2023-05-16T00:44:53;16.40;64.50
30999;DHT22;20549;50.042;8.968;2023-05-16T00:47:19;16.40;64.60
30999;DHT22;20549;50.042;8.968;2023-05-16T00:49:46;16.40;64.70
30999;DHT22;20549;50.042;8.968;2023-05-16T00:52:12;16.40;64.60
30999;DHT22;20549;50.042;8.968;2023-05-16T00:54:39;16.40;64.70
30999;DHT22;20549;50.042;8.968;2023-05-16T00:57:06;16.30;64.60
30999;DHT22;20549;50.042;8.968;2023-05-16T00:59:32;16.30;64.60
30999;DHT22;20549;50.042;8.968;2023-05-16T01:01:59;16.30;64.70
30999;DHT22;20549;50.042;8.968;2023-05-16T01:04:25;16.20;64.60
30999;DHT22;20549;50.042;8.968;2023-05-16T01:06:52;16.20;64.80
30999;DHT22;20549;50.042;8.968;2023-05-16T01:09:19;16.20;65.00
30999;DHT22;20549;50.042;8.968;2023-05-16T01:20:12;15.90;65.10
30999;DHT22;20549;50.042;8.968;2023-05-16T01:28:04;15.60;65.40
30999;DHT22;20549;50.042;8.968;2023-05-16T01:30:38;15.60;66.20
30999;DHT22;20549;50.042;8.968;2023-05-16T01:33:00;15.50;65.70
30999;DHT22;20549;50.042;8.968;2023-05-16T01:35:27;15.40;65.90
30999;DHT22;20549;50.042;8.968;2023-05-16T01:37:57;15.30;66.20
30999;DHT22;20549;50.042;8.968;2023-05-16T01:40:23;15.30;66.40
30999;DHT22;20549;50.042;8.968;2023-05-16T01:42:47;15.20;66.60
30999;DHT22;20549;50.042;8.968;2023-05-16T01:45:22;15.10;66.70
30999;DHT22;20549;50.042;8.968;2023-05-16T01:47:50;15.00;66.80
30999;DHT22;20549;50.042;8.968;2023-05-16T01:50:13;14.90;67.10
30999;DHT22;20549;50.042;8.968;2023-05-16T01:52:58;14.90;67.30
30999;DHT22;20549;50.042;8.968;2023-05-16T01:55:29;14.70;67.40
30999;DHT22;20549;50.042;8.968;2023-05-16T01:57:50;14.60;67.40
30999;DHT22;20549;50.042;8.968;2023-05-16T02:00:17;14.50;67.60
30999;DHT22;20549;50.042;8.968;2023-05-16T02:02:43;14.50;68.00
30999;DHT22;20549;50.042;8.968;2023-05-16T02:05:10;14.40;68.30
30999;DHT22;20549;50.042;8.968;2023-05-16T02:07:36;14.30;68.60
30999;DHT22;20549;50.042;8.968;2023-05-16T02:10:03;14.20;68.80
30999;DHT22;20549;50.042;8.968;2023-05-16T02:12:30;14.20;69.10
30999;DHT22;20549;50.042;8.968;2023-05-16T02:14:56;14.10;69.40
30999;DHT22;20549;50.042;8.968;2023-05-16T02:17:23;14.10;69.60
30999;DHT22;20549;50.042;8.968;2023-05-16T02:19:49;14.10;69.80
30999;DHT22;20549;50.042;8.968;2023-05-16T02:22:16;14.00;69.90
30999;DHT22;20549;50.042;8.968;2023-05-16T02:24:43;14.00;70.00
30999;DHT22;20549;50.042;8.968;2023-05-16T02:27:09;13.90;70.20
30999;DHT22;20549;50.042;8.968;2023-05-16T02:29:36;13.90;70.40
30999;DHT22;20549;50.042;8.968;2023-05-16T02:32:02;13.90;70.50
30999;DHT22;20549;50.042;8.968;2023-05-16T02:34:29;13.80;70.70
30999;DHT22;20549;50.042;8.968;2023-05-16T02:36:56;13.80;70.80
30999;DHT22;20549;50.042;8.968;2023-05-16T02:39:22;13.80;71.00
30999;DHT22;20549;50.042;8.968;2023-05-16T02:41:49;13.70;71.10
30999;DHT22;20549;50.042;8.968;2023-05-16T02:44:15;13.70;71.30
30999;DHT22;20549;50.042;8.968;2023-05-16T02:46:42;13.70;71.40
30999;DHT22;20549;50.042;8.968;2023-05-16T02:49:09;13.60;71.40
30999;DHT22;20549;50.042;8.968;2023-05-16T02:51:35;13.50;71.50
30999;DHT22;20549;50.042;8.968;2023-05-16T02:54:02;13.50;71.60
30999;DHT22;20549;50.042;8.968;2023-05-16T02:56:28;13.50;71.80
30999;DHT22;20549;50.042;8.968;2023-05-16T02:58:55;13.40;71.80
30999;DHT22;20549;50.042;8.968;2023-05-16T03:01:22;13.40;72.00
30999;DHT22;20549;50.042;8.968;2023-05-16T03:03:48;13.30;72.10
30999;DHT22;20549;50.042;8.968;2023-05-16T03:06:15;13.30;72.30
30999;DHT22;20549;50.042;8.968;2023-05-16T03:08:41;13.20;72.30
30999;DHT22;20549;50.042;8.968;2023-05-16T03:11:08;13.20;72.60
30999;DHT22;20549;50.042;8.968;2023-05-16T03:13:34;13.10;72.80
30999;DHT22;20549;50.042;8.968;2023-05-16T03:16:01;13.10;73.00
30999;DHT22;20549;50.042;8.968;2023-05-16T03:18:28;13.10;73.10
30999;DHT22;20549;50.042;8.968;2023-05-16T03:20:54;13.00;73.20
30999;DHT22;20549;50.042;8.968;2023-05-16T03:23:21;13.00;73.50
30999;DHT22;20549;50.042;8.968;2023-05-16T03:25:48;13.00;73.80
30999;DHT22;20549;50.042;8.968;2023-05-16T03:28:15;13.00;74.00
30999;DHT22;20549;50.042;8.968;2023-05-16T03:30:41;13.00;74.10
30999;DHT22;20549;50.042;8.968;2023-05-16T03:33:07;12.90;74.30
30999;DHT22;20549;50.042;8.968;2023-05-16T03:35:34;12.90;74.50
30999;DHT22;20549;50.042;8.968;2023-05-16T03:38:01;12.90;74.60
30999;DHT22;20549;50.042;8.968;2023-05-16T03:40:27;12.90;74.60
30999;DHT22;20549;50.042;8.968;2023-05-16T03:42:54;12.90;74.80
30999;DHT22;20549;50.042;8.968;2023-05-16T03:45:20;12.90;75.00
30999;DHT22;20549;50.042;8.968;2023-05-16T03:47:49;12.90;75.30
30999;DHT22;20549;50.042;8.968;2023-05-16T03:50:16;12.90;75.70
30999;DHT22;20549;50.042;8.968;2023-05-16T03:52:42;12.90;76.20
30999;DHT22;20549;50.042;8.968;2023-05-16T03:55:09;12.90;76.40
30999;DHT22;20549;50.042;8.968;2023-05-16T03:57:36;13.00;76.70
30999;DHT22;20549;50.042;8.968;2023-05-16T04:00:02;13.10;77.00
30999;DHT22;20549;50.042;8.968;2023-05-16T04:02:29;13.10;77.10
30999;DHT22;20549;50.042;8.968;2023-05-16T04:04:55;13.20;77.30
30999;DHT22;20549;50.042;8.968;2023-05-16T04:07:22;13.30;77.30
30999;DHT22;20549;50.042;8.968;2023-05-16T04:09:49;13.40;77.40
30999;DHT22;20549;50.042;8.968;2023-05-16T04:12:15;13.50;76.70
30999;DHT22;20549;50.042;8.968;2023-05-16T04:14:42;13.60;77.40
30999;DHT22;20549;50.042;8.968;2023-05-16T04:17:08;13.70;77.40
30999;DHT22;20549;50.042;8.968;2023-05-16T04:19:35;13.80;77.40
30999;DHT22;20549;50.042;8.968;2023-05-16T04:22:02;13.90;77.40
30999;DHT22;20549;50.042;8.968;2023-05-16T04:24:28;14.00;77.40
30999;DHT22;20549;50.042;8.968;2023-05-16T04:26:55;14.10;77.40
30999;DHT22;20549;50.042;8.968;2023-05-16T04:29:21;14.10;77.20
30999;DHT22;20549;50.042;8.968;2023-05-16T04:31:48;14.20;77.10
30999;DHT22;20549;50.042;8.968;2023-05-16T04:34:14;14.30;77.10
30999;DHT22;20549;50.042;8.968;2023-05-16T04:36:41;14.40;76.90
30999;DHT22;20549;50.042;8.968;2023-05-16T04:39:08;14.40;76.90
30999;DHT22;20549;50.042;8.968;2023-05-16T04:41:34;14.50;76.90
30999;DHT22;20549;50.042;8.968;2023-05-16T04:44:01;14.60;76.90
30999;DHT22;20549;50.042;8.968;2023-05-16T04:46:27;14.60;76.90
30999;DHT22;20549;50.042;8.968;2023-05-16T04:48:54;14.70;76.90
30999;DHT22;20549;50.042;8.968;2023-05-16T04:51:21;14.70;76.70
30999;DHT22;20549;50.042;8.968;2023-05-16T04:53:47;14.80;76.70
30999;DHT22;20549;50.042;8.968;2023-05-16T04:56:14;14.90;76.70
30999;DHT22;20549;50.042;8.968;2023-05-16T04:58:40;14.90;76.60
30999;DHT22;20549;50.042;8.968;2023-05-16T05:01:07;15.00;76.60
30999;DHT22;20549;50.042;8.968;2023-05-16T05:03:34;15.10;76.70
30999;DHT22;20549;50.042;8.968;2023-05-16T05:06:00;15.10;76.80
30999;DHT22;20549;50.042;8.968;2023-05-16T05:08:27;15.10;76.80
30999;DHT22;20549;50.042;8.968;2023-05-16T05:10:57;15.20;76.80
30999;DHT22;20549;50.042;8.968;2023-05-16T05:13:20;15.30;76.90
30999;DHT22;20549;50.042;8.968;2023-05-16T05:15:47;15.30;76.80
30999;DHT22;20549;50.042;8.968;2023-05-16T05:18:13;15.30;76.60
30999;DHT22;20549;50.042;8.968;2023-05-16T05:20:40;15.40;76.50
30999;DHT22;20549;50.042;8.968;2023-05-16T05:23:06;15.50;76.50
30999;DHT22;20549;50.042;8.968;2023-05-16T05:25:34;15.60;76.40
30999;DHT22;20549;50.042;8.968;2023-05-16T05:27:59;15.60;76.20
30999;DHT22;20549;50.042;8.968;2023-05-16T05:30:26;15.60;76.20
30999;DHT22;20549;50.042;8.968;2023-05-16T05:32:53;15.70;76.10
30999;DHT22;20549;50.042;8.968;2023-05-16T05:35:19;15.70;75.90
30999;DHT22;20549;50.042;8.968;2023-05-16T05:37:46;15.70;75.70
30999;DHT22;20549;50.042;8.968;2023-05-16T05:40:12;15.80;75.70
30999;DHT22;20549;50.042;8.968;2023-05-16T05:42:39;15.80;75.70
30999;DHT22;20549;50.042;8.968;2023-05-16T05:45:06;15.90;75.70
30999;DHT22;20549;50.042;8.968;2023-05-16T05:47:32;15.90;75.70
30999;DHT22;20549;50.042;8.968;2023-05-16T05:49:59;16.00;75.70
30999;DHT22;20549;50.042;8.968;2023-05-16T05:52:25;16.00;75.60
30999;DHT22;20549;50.042;8.968;2023-05-16T05:54:52;16.10;75.70
30999;DHT22;20549;50.042;8.968;2023-05-16T05:57:19;16.10;75.50
30999;DHT22;20549;50.042;8.968;2023-05-16T05:59:45;16.10;75.30
30999;DHT22;20549;50.042;8.968;2023-05-16T06:02:12;16.10;75.10
30999;DHT22;20549;50.042;8.968;2023-05-16T06:04:38;16.10;75.00
30999;DHT22;20549;50.042;8.968;2023-05-16T06:07:05;16.10;75.00
30999;DHT22;20549;50.042;8.968;2023-05-16T06:09:32;16.20;75.00
30999;DHT22;20549;50.042;8.968;2023-05-16T06:11:58;16.10;74.80
30999;DHT22;20549;50.042;8.968;2023-05-16T06:14:25;16.10;75.00
30999;DHT22;20549;50.042;8.968;2023-05-16T06:16:51;16.10;75.00
30999;DHT22;20549;50.042;8.968;2023-05-16T06:19:18;16.10;75.10
30999;DHT22;20549;50.042;8.968;2023-05-16T06:21:45;16.10;75.20
30999;DHT22;20549;50.042;8.968;2023-05-16T06:24:11;16.10;75.30
30999;DHT22;20549;50.042;8.968;2023-05-16T06:26:38;16.10;75.30
30999;DHT22;20549;50.042;8.968;2023-05-16T06:29:04;16.10;75.30
30999;DHT22;20549;50.042;8.968;2023-05-16T06:31:31;16.10;75.30
30999;DHT22;20549;50.042;8.968;2023-05-16T06:33:58;16.10;75.30
30999;DHT22;20549;50.042;8.968;2023-05-16T06:36:24;16.10;75.10
30999;DHT22;20549;50.042;8.968;2023-05-16T06:38:51;16.10;74.60
30999;DHT22;20549;50.042;8.968;2023-05-16T06:41:17;16.00;74.50
30999;DHT22;20549;50.042;8.968;2023-05-16T06:43:44;16.00;74.10
30999;DHT22;20549;50.042;8.968;2023-05-16T06:46:10;15.90;73.90
30999;DHT22;20549;50.042;8.968;2023-05-16T06:48:37;15.90;73.90
30999;DHT22;20549;50.042;8.968;2023-05-16T06:51:04;15.80;73.70
30999;DHT22;20549;50.042;8.968;2023-05-16T06:53:30;15.80;73.70
30999;DHT22;20549;50.042;8.968;2023-05-16T06:55:57;15.70;73.70
30999;DHT22;20549;50.042;8.968;2023-05-16T06:58:23;15.70;73.60
30999;DHT22;20549;50.042;8.968;2023-05-16T07:00:50;15.60;73.70
30999;DHT22;20549;50.042;8.968;2023-05-16T07:03:17;15.60;73.70
30999;DHT22;20549;50.042;8.968;2023-05-16T07:05:43;15.60;73.80
30999;DHT22;20549;50.042;8.968;2023-05-16T07:08:10;15.50;73.90
30999;DHT22;20549;50.042;8.968;2023-05-16T07:10:37;15.50;74.00
30999;DHT22;20549;50.042;8.968;2023-05-16T07:13:03;15.50;74.00
30999;DHT22;20549;50.042;8.968;2023-05-16T07:15:30;15.60;74.20
30999;DHT22;20549;50.042;8.968;2023-05-16T07:17:56;15.50;74.10
30999;DHT22;20549;50.042;8.968;2023-05-16T07:20:23;15.50;74.20
30999;DHT22;20549;50.042;8.968;2023-05-16T07:22:49;15.50;74.30
30999;DHT22;20549;50.042;8.968;2023-05-16T07:25:16;15.60;74.50
30999;DHT22;20549;50.042;8.968;2023-05-16T07:27:42;15.60;74.50
30999;DHT22;20549;50.042;8.968;2023-05-16T07:30:09;15.60;74.50
30999;DHT22;20549;50.042;8.968;2023-05-16T07:32:36;15.60;74.50
30999;DHT22;20549;50.042;8.968;2023-05-16T07:35:03;15.60;74.40
30999;DHT22;20549;50.042;8.968;2023-05-16T07:37:29;15.70;74.40
30999;DHT22;20549;50.042;8.968;2023-05-16T07:39:56;15.70;74.40
30999;DHT22;20549;50.042;8.968;2023-05-16T07:42:23;15.70;74.60
30999;DHT22;20549;50.042;8.968;2023-05-16T07:44:49;15.70;74.60
30999;DHT22;20549;50.042;8.968;2023-05-16T07:47:15;15.80;74.60
30999;DHT22;20549;50.042;8.968;2023-05-16T07:49:42;15.80;74.50
30999;DHT22;20549;50.042;8.968;2023-05-16T07:52:09;15.90;74.30
30999;DHT22;20549;50.042;8.968;2023-05-16T07:54:35;15.90;74.00
30999;DHT22;20549;50.042;8.968;2023-05-16T07:57:02;15.90;74.00
30999;DHT22;20549;50.042;8.968;2023-05-16T07:59:28;15.90;74.00
30999;DHT22;20549;50.042;8.968;2023-05-16T08:01:55;15.90;73.90
30999;DHT22;20549;50.042;8.968;2023-05-16T08:04:22;16.00;73.90
30999;DHT22;20549;50.042;8.968;2023-05-16T08:06:48;15.90;73.60
30999;DHT22;20549;50.042;8.968;2023-05-16T08:09:15;16.00;73.60
30999;DHT22;20549;50.042;8.968;2023-05-16T08:11:41;16.00;73.20
30999;DHT22;20549;50.042;8.968;2023-05-16T08:14:08;16.00;73.00
30999;DHT22;20549;50.042;8.968;2023-05-16T08:16:34;16.00;72.90
30999;DHT22;20549;50.042;8.968;2023-05-16T08:19:01;15.90;72.80
30999;DHT22;20549;50.042;8.968;2023-05-16T08:21:28;15.90;72.80
30999;DHT22;20549;50.042;8.968;2023-05-16T08:23:54;15.90;72.90
30999;DHT22;20549;50.042;8.968;2023-05-16T08:26:21;15.80;72.50
30999;DHT22;20549;50.042;8.968;2023-05-16T08:28:47;15.80;72.10
30999;DHT22;20549;50.042;8.968;2023-05-16T08:31:14;15.80;71.70
30999;DHT22;20549;50.042;8.968;2023-05-16T08:33:41;15.70;71.40
30999;DHT22;20549;50.042;8.968;2023-05-16T08:36:10;15.60;71.00
30999;DHT22;20549;50.042;8.968;2023-05-16T08:38:34;15.50;70.40
30999;DHT22;20549;50.042;8.968;2023-05-16T08:41:00;15.40;70.30
30999;DHT22;20549;50.042;8.968;2023-05-16T08:43:27;15.30;70.20
30999;DHT22;20549;50.042;8.968;2023-05-16T08:45:54;15.20;70.30
30999;DHT22;20549;50.042;8.968;2023-05-16T08:48:21;15.10;70.40
30999;DHT22;20549;50.042;8.968;2023-05-16T08:50:47;15.10;71.30
30999;DHT22;20549;50.042;8.968;2023-05-16T08:53:13;15.00;70.60
30999;DHT22;20549;50.042;8.968;2023-05-16T08:55:40;15.00;71.70
30999;DHT22;20549;50.042;8.968;2023-05-16T08:58:06;15.00;71.20
30999;DHT22;20549;50.042;8.968;2023-05-16T09:00:33;15.00;71.40
30999;DHT22;20549;50.042;8.968;2023-05-16T09:03:00;15.00;71.50
30999;DHT22;20549;50.042;8.968;2023-05-16T09:05:28;15.10;71.80
30999;DHT22;20549;50.042;8.968;2023-05-16T09:07:53;15.10;72.00
30999;DHT22;20549;50.042;8.968;2023-05-16T09:10:19;15.20;72.10
30999;DHT22;20549;50.042;8.968;2023-05-16T09:12:46;15.30;72.30
30999;DHT22;20549;50.042;8.968;2023-05-16T09:15:13;15.40;72.00
30999;DHT22;20549;50.042;8.968;2023-05-16T09:17:43;15.50;71.50
30999;DHT22;20549;50.042;8.968;2023-05-16T09:20:15;15.60;71.20
30999;DHT22;20549;50.042;8.968;2023-05-16T09:22:39;15.70;71.00
30999;DHT22;20549;50.042;8.968;2023-05-16T09:25:05;15.80;70.80
30999;DHT22;20549;50.042;8.968;2023-05-16T09:27:32;15.90;70.70
30999;DHT22;20549;50.042;8.968;2023-05-16T09:29:58;16.00;70.60
30999;DHT22;20549;50.042;8.968;2023-05-16T09:32:25;16.10;70.10
30999;DHT22;20549;50.042;8.968;2023-05-16T09:34:52;16.20;69.90
30999;DHT22;20549;50.042;8.968;2023-05-16T09:37:18;16.30;69.80
30999;DHT22;20549;50.042;8.968;2023-05-16T09:39:45;16.50;69.40
30999;DHT22;20549;50.042;8.968;2023-05-16T09:42:12;16.60;69.20
30999;DHT22;20549;50.042;8.968;2023-05-16T09:44:38;16.80;68.90
30999;DHT22;20549;50.042;8.968;2023-05-16T09:47:05;16.90;67.70
30999;DHT22;20549;50.042;8.968;2023-05-16T09:49:31;17.00;67.20
30999;DHT22;20549;50.042;8.968;2023-05-16T09:52:03;17.10;67.30
30999;DHT22;20549;50.042;8.968;2023-05-16T09:54:31;17.20;66.90
30999;DHT22;20549;50.042;8.968;2023-05-16T09:56:57;17.30;66.80
30999;DHT22;20549;50.042;8.968;2023-05-16T09:59:23;17.40;65.80
30999;DHT22;20549;50.042;8.968;2023-05-16T10:01:50;17.40;65.60
30999;DHT22;20549;50.042;8.968;2023-05-16T10:04:16;17.50;65.30
30999;DHT22;20549;50.042;8.968;2023-05-16T10:06:43;17.50;65.30
30999;DHT22;20549;50.042;8.968;2023-05-16T10:09:10;17.50;65.30
30999;DHT22;20549;50.042;8.968;2023-05-16T10:11:37;17.60;65.20
30999;DHT22;20549;50.042;8.968;2023-05-16T10:14:03;17.60;65.10
30999;DHT22;20549;50.042;8.968;2023-05-16T10:16:29;17.70;64.90
30999;DHT22;20549;50.042;8.968;2023-05-16T10:18:56;17.70;64.60
30999;DHT22;20549;50.042;8.968;2023-05-16T10:21:23;17.70;64.50
30999;DHT22;20549;50.042;8.968;2023-05-16T10:23:49;17.80;64.60
30999;DHT22;20549;50.042;8.968;2023-05-16T10:26:16;17.80;64.40
30999;DHT22;20549;50.042;8.968;2023-05-16T10:28:42;17.90;64.40
30999;DHT22;20549;50.042;8.968;2023-05-16T10:31:09;17.90;64.50
30999;DHT22;20549;50.042;8.968;2023-05-16T10:33:36;18.10;64.50
30999;DHT22;20549;50.042;8.968;2023-05-16T10:36:02;18.20;64.20
30999;DHT22;20549;50.042;8.968;2023-05-16T10:38:29;18.30;64.00
30999;DHT22;20549;50.042;8.968;2023-05-16T10:40:55;18.50;64.00
30999;DHT22;20549;50.042;8.968;2023-05-16T10:43:26;18.60;63.60
30999;DHT22;20549;50.042;8.968;2023-05-16T10:45:58;18.70;63.10
30999;DHT22;20549;50.042;8.968;2023-05-16T10:50:56;19.00;62.80
30999;DHT22;20549;50.042;8.968;2023-05-16T10:53:30;19.10;62.90
30999;DHT22;20549;50.042;8.968;2023-05-16T11:06:30;20.00;61.00
30999;DHT22;20549;50.042;8.968;2023-05-16T11:14:34;20.50;59.60
30999;DHT22;20549;50.042;8.968;2023-05-16T11:19:57;20.70;59.00
30999;DHT22;20549;50.042;8.968;2023-05-16T11:22:22;20.80;58.50
30999;DHT22;20549;50.042;8.968;2023-05-16T11:24:54;20.90;58.40
30999;DHT22;20549;50.042;8.968;2023-05-16T11:27:24;20.80;57.60
30999;DHT22;20549;50.042;8.968;2023-05-16T11:29:49;20.80;57.50
30999;DHT22;20549;50.042;8.968;2023-05-16T11:32:18;20.70;57.30
30999;DHT22;20549;50.042;8.968;2023-05-16T11:34:42;20.60;57.00
30999;DHT22;20549;50.042;8.968;2023-05-16T11:37:12;20.50;57.10
30999;DHT22;20549;50.042;8.968;2023-05-16T11:39:35;20.40;57.40
30999;DHT22;20549;50.042;8.968;2023-05-16T11:42:02;20.40;57.30
30999;DHT22;20549;50.042;8.968;2023-05-16T11:44:28;20.40;57.20
30999;DHT22;20549;50.042;8.968;2023-05-16T11:46:55;20.30;57.00
30999;DHT22;20549;50.042;8.968;2023-05-16T11:49:21;20.30;57.00
30999;DHT22;20549;50.042;8.968;2023-05-16T11:51:48;20.20;57.00
30999;DHT22;20549;50.042;8.968;2023-05-16T11:54:15;20.20;57.00
30999;DHT22;20549;50.042;8.968;2023-05-16T11:56:41;20.20;57.10
30999;DHT22;20549;50.042;8.968;2023-05-16T11:59:08;20.30;57.00
30999;DHT22;20549;50.042;8.968;2023-05-16T12:01:35;20.30;56.70
30999;DHT22;20549;50.042;8.968;2023-05-16T12:04:01;20.40;56.20
30999;DHT22;20549;50.042;8.968;2023-05-16T12:06:28;20.40;56.00
30999;DHT22;20549;50.042;8.968;2023-05-16T12:08:54;20.40;55.70
30999;DHT22;20549;50.042;8.968;2023-05-16T12:11:22;20.40;55.60
30999;DHT22;20549;50.042;8.968;2023-05-16T12:13:47;20.50;55.70
30999;DHT22;20549;50.042;8.968;2023-05-16T12:16:14;20.50;55.30
30999;DHT22;20549;50.042;8.968;2023-05-16T12:18:41;20.50;54.90
30999;DHT22;20549;50.042;8.968;2023-05-16T12:21:07;20.50;54.80
30999;DHT22;20549;50.042;8.968;2023-05-16T12:23:34;20.60;54.60
30999;DHT22;20549;50.042;8.968;2023-05-16T12:26:01;20.60;54.50
30999;DHT22;20549;50.042;8.968;2023-05-16T12:28:33;20.70;54.20
30999;DHT22;20549;50.042;8.968;2023-05-16T12:30:59;20.70;53.80
30999;DHT22;20549;50.042;8.968;2023-05-16T12:33:26;20.70;53.40
30999;DHT22;20549;50.042;8.968;2023-05-16T12:35:53;20.70;53.40
30999;DHT22;20549;50.042;8.968;2023-05-16T12:38:19;20.70;52.50
30999;DHT22;20549;50.042;8.968;2023-05-16T12:40:46;20.70;52.40
30999;DHT22;20549;50.042;8.968;2023-05-16T12:43:13;20.70;52.60
30999;DHT22;20549;50.042;8.968;2023-05-16T12:45:39;20.70;52.80
30999;DHT22;20549;50.042;8.968;2023-05-16T12:48:15;20.60;52.80
30999;DHT22;20549;50.042;8.968;2023-05-16T12:50:32;20.60;52.70
30999;DHT22;20549;50.042;8.968;2023-05-16T12:52:59;20.60;52.40
30999;DHT22;20549;50.042;8.968;2023-05-16T12:55:25;20.50;52.50
30999;DHT22;20549;50.042;8.968;2023-05-16T12:57:53;20.50;52.70
30999;DHT22;20549;50.042;8.968;2023-05-16T13:00:19;20.40;52.60
30999;DHT22;20549;50.042;8.968;2023-05-16T13:02:46;20.40;52.80
30999;DHT22;20549;50.042;8.968;2023-05-16T13:05:12;20.40;52.30
30999;DHT22;20549;50.042;8.968;2023-05-16T13:07:38;20.40;52.40
30999;DHT22;20549;50.042;8.968;2023-05-16T13:10:08;20.40;52.00
30999;DHT22;20549;50.042;8.968;2023-05-16T13:12:37;20.40;52.10
30999;DHT22;20549;50.042;8.968;2023-05-16T13:15:04;20.40;52.20
30999;DHT22;20549;50.042;8.968;2023-05-16T13:17:30;20.40;52.10
30999;DHT22;20549;50.042;8.968;2023-05-16T13:19:57;20.50;51.90
30999;DHT22;20549;50.042;8.968;2023-05-16T13:22:23;20.60;51.60
30999;DHT22;20549;50.042;8.968;2023-05-16T13:24:50;20.70;51.50
30999;DHT22;20549;50.042;8.968;2023-05-16T13:27:16;20.70;51.10
30999;DHT22;20549;50.042;8.968;2023-05-16T13:29:43;20.70;50.30
30999;DHT22;20549;50.042;8.968;2023-05-16T13:32:10;20.70;50.20
30999;DHT22;20549;50.042;8.968;2023-05-16T13:34:36;20.70;50.00
30999;DHT22;20549;50.042;8.968;2023-05-16T13:37:03;20.60;49.60
30999;DHT22;20549;50.042;8.968;2023-05-16T13:39:29;20.60;49.60
30999;DHT22;20549;50.042;8.968;2023-05-16T13:41:56;20.50;49.40
30999;DHT22;20549;50.042;8.968;2023-05-16T13:44:22;20.50;49.10
30999;DHT22;20549;50.042;8.968;2023-05-16T13:46:49;20.40;48.60
30999;DHT22;20549;50.042;8.968;2023-05-16T13:49:16;20.30;48.70
30999;DHT22;20549;50.042;8.968;2023-05-16T13:51:42;20.20;49.00
30999;DHT22;20549;50.042;8.968;2023-05-16T13:54:09;20.10;49.20
30999;DHT22;20549;50.042;8.968;2023-05-16T13:56:35;20.10;48.90
30999;DHT22;20549;50.042;8.968;2023-05-16T13:59:02;20.00;49.20
30999;DHT22;20549;50.042;8.968;2023-05-16T14:01:29;20.00;49.40
30999;DHT22;20549;50.042;8.968;2023-05-16T14:03:55;20.00;49.40
30999;DHT22;20549;50.042;8.968;2023-05-16T14:06:22;20.10;49.40
30999;DHT22;20549;50.042;8.968;2023-05-16T14:08:48;20.10;49.20
30999;DHT22;20549;50.042;8.968;2023-05-16T14:11:15;20.20;49.20
30999;DHT22;20549;50.042;8.968;2023-05-16T14:13:42;20.20;49.10
30999;DHT22;20549;50.042;8.968;2023-05-16T14:16:08;20.30;49.20
30999;DHT22;20549;50.042;8.968;2023-05-16T14:18:35;20.30;48.10
30999;DHT22;20549;50.042;8.968;2023-05-16T14:21:01;20.30;48.00
30999;DHT22;20549;50.042;8.968;2023-05-16T14:23:28;20.20;47.60
30999;DHT22;20549;50.042;8.968;2023-05-16T14:25:54;20.20;47.90
30999;DHT22;20549;50.042;8.968;2023-05-16T14:28:21;20.10;47.90
30999;DHT22;20549;50.042;8.968;2023-05-16T14:30:48;20.10;48.20
30999;DHT22;20549;50.042;8.968;2023-05-16T14:33:14;20.10;48.20
30999;DHT22;20549;50.042;8.968;2023-05-16T14:35:41;20.10;48.00
30999;DHT22;20549;50.042;8.968;2023-05-16T14:38:07;20.20;47.70
30999;DHT22;20549;50.042;8.968;2023-05-16T14:40:34;20.20;47.40
30999;DHT22;20549;50.042;8.968;2023-05-16T14:43:01;20.20;47.60
30999;DHT22;20549;50.042;8.968;2023-05-16T14:45:27;20.20;47.60
30999;DHT22;20549;50.042;8.968;2023-05-16T14:47:54;20.20;47.30
30999;DHT22;20549;50.042;8.968;2023-05-16T14:50:20;20.20;47.60
30999;DHT22;20549;50.042;8.968;2023-05-16T14:52:47;20.20;47.60
30999;DHT22;20549;50.042;8.968;2023-05-16T14:55:14;20.20;47.50
30999;DHT22;20549;50.042;8.968;2023-05-16T14:57:40;20.30;47.30
30999;DHT22;20549;50.042;8.968;2023-05-16T15:00:07;20.30;47.30
30999;DHT22;20549;50.042;8.968;2023-05-16T15:02:34;20.40;47.20
30999;DHT22;20549;50.042;8.968;2023-05-16T15:05:00;20.50;47.10
30999;DHT22;20549;50.042;8.968;2023-05-16T15:07:27;20.40;46.70
30999;DHT22;20549;50.042;8.968;2023-05-16T15:09:53;20.50;46.60
30999;DHT22;20549;50.042;8.968;2023-05-16T15:12:20;20.50;46.30
30999;DHT22;20549;50.042;8.968;2023-05-16T15:14:47;20.40;46.00
30999;DHT22;20549;50.042;8.968;2023-05-16T15:17:13;20.40;46.10
30999;DHT22;20549;50.042;8.968;2023-05-16T15:19:40;20.40;45.70
30999;DHT22;20549;50.042;8.968;2023-05-16T15:22:06;20.30;45.70
30999;DHT22;20549;50.042;8.968;2023-05-16T15:24:42;20.20;45.90
30999;DHT22;20549;50.042;8.968;2023-05-16T15:30:30;20.10;46.00
30999;DHT22;20549;50.042;8.968;2023-05-16T15:32:57;20.00;46.00
30999;DHT22;20549;50.042;8.968;2023-05-16T15:35:23;19.90;45.50
30999;DHT22;20549;50.042;8.968;2023-05-16T15:37:50;19.80;45.40
30999;DHT22;20549;50.042;8.968;2023-05-16T15:40:17;19.70;45.40
30999;DHT22;20549;50.042;8.968;2023-05-16T15:42:43;19.60;46.10
30999;DHT22;20549;50.042;8.968;2023-05-16T15:45:13;19.60;46.00
30999;DHT22;20549;50.042;8.968;2023-05-16T15:47:40;19.50;45.90
30999;DHT22;20549;50.042;8.968;2023-05-16T15:50:06;19.40;45.80
30999;DHT22;20549;50.042;8.968;2023-05-16T15:52:33;19.40;46.30
30999;DHT22;20549;50.042;8.968;2023-05-16T15:54:59;19.50;46.00
30999;DHT22;20549;50.042;8.968;2023-05-16T15:57:26;19.50;46.30
30999;DHT22;20549;50.042;8.968;2023-05-16T15:59:52;19.50;46.50
30999;DHT22;20549;50.042;8.968;2023-05-16T16:02:19;19.60;46.60
30999;DHT22;20549;50.042;8.968;2023-05-16T16:04:45;19.60;46.30